Terminal Aerodrome Forecast
Issued by NWS

Home | Current Version | Previous Version | Text Only | Print | Product List | Glossary On
Versions: 1 2 3 4 5 6 7 8 9 10 11 12 13 14 15
000
FTUS45 KRIW 201722
TAFCPR
TAF
KCPR 201722Z 2018/2118 21014G22KT P6SM SKC
     FM201900 23014G22KT P6SM VCTS SCT100CB
     FM210200 21010KT P6SM FEW100
     FM211400 24008KT P6SM SKC=

USA.gov is the U.S. government's official web portal to all federal, state and local government web resources and services.